Time,TemperatureF,DewpointF,PressureIn,WindDirection,WindDirectionDegrees,WindSpeedMPH,WindSpeedGustMPH,Humidity,HourlyPrecipIn,Conditions,Clouds,dailyrainin,SoftwareType,DateUTC
2013-01-20 00:11:00,46.8,38.0,30.16,SSW,207,0.0,0.0,72,0.00,,,0.00,weatherlink.com 1.10,2013-01-20 06:11:00,
2013-01-20 00:26:00,45.6,38.0,30.16,SSW,207,0.0,0.0,75,0.00,,,0.00,weatherlink.com 1.10,2013-01-20 06:26:00,
2013-01-20 00:41:00,44.9,38.0,30.16,SSW,207,0.0,0.0,77,0.00,,,0.00,weatherlink.com 1.10,2013-01-20 06:41:00,
2013-01-20 01:11:00,44.8,38.0,30.16,SSW,207,0.0,0.0,78,0.00,,,0.00,weatherlink.com 1.10,2013-01-20 07:11:00,
2013-01-20 01:26:00,44.6,38.0,30.16,SSW,207,0.0,0.0,78,0.00,,,0.00,weatherlink.com 1.10,2013-01-20 07:26:00,
2013-01-20 01:41:00,43.9,37.0,30.16,SSW,207,0.0,0.0,78,0.00,,,0.00,weatherlink.com 1.10,2013-01-20 07:41:00,
2013-01-20 01:56:00,43.3,38.0,30.16,SSW,207,0.0,0.0,80,0.00,,,0.00,weatherlink.com 1.10,2013-01-20 07:56:00,
2013-01-20 02:11:00,42.7,37.0,30.16,SSW,207,0.0,1.0,81,0.00,,,0.00,weatherlink.com 1.10,2013-01-20 08:11:00,
2013-01-20 02:26:00,42.6,37.0,30.16,SSW,207,0.0,1.0,81,0.00,,,0.00,weatherlink.com 1.10,2013-01-20 08:26:00,
2013-01-20 02:41:00,42.7,37.0,30.16,SSW,207,0.0,2.0,81,0.00,,,0.00,weatherlink.com 1.10,2013-01-20 08:41:00,
2013-01-20 02:56:00,42.5,37.0,30.16,SSW,207,0.0,1.0,81,0.00,,,0.00,weatherlink.com 1.10,2013-01-20 08:56:00,
2013-01-20 03:11:00,42.0,37.0,30.16,SSW,207,0.0,0.0,82,0.00,,,0.00,weatherlink.com 1.10,2013-01-20 09:11:00,
2013-01-20 03:26:00,41.0,36.0,30.15,SSW,207,0.0,0.0,82,0.00,,,0.00,weatherlink.com 1.10,2013-01-20 09:26:00,
2013-01-20 03:41:00,40.2,36.0,30.15,SSW,207,0.0,0.0,84,0.00,,,0.00,weatherlink.com 1.10,2013-01-20 09:41:00,
2013-01-20 03:56:00,39.3,35.0,30.16,SSW,207,0.0,0.0,85,0.00,,,0.00,weatherlink.com 1.10,2013-01-20 09:56:00,
2013-01-20 04:11:00,38.7,35.0,30.16,SSW,207,0.0,0.0,86,0.00,,,0.00,weatherlink.com 1.10,2013-01-20 10:11:00,
2013-01-20 04:26:00,39.0,36.0,30.15,SSW,207,0.0,0.0,89,0.00,,,0.00,weatherlink.com 1.10,2013-01-20 10:26:00,
2013-01-20 04:57:00,40.7,37.0,30.15,SSW,207,0.0,1.0,85,0.00,,,0.00,weatherlink.com 1.10,2013-01-20 10:57:00,
2013-01-20 05:12:00,40.2,36.0,30.15,SSW,207,0.0,1.0,86,0.00,,,0.00,weatherlink.com 1.10,2013-01-20 11:12:00,
2013-01-20 05:27:00,39.9,36.0,30.14,SSW,207,0.0,1.0,86,0.00,,,0.00,weatherlink.com 1.10,2013-01-20 11:27:00,
2013-01-20 05:42:00,40.0,36.0,30.14,SSW,207,0.0,2.0,86,0.00,,,0.00,weatherlink.com 1.10,2013-01-20 11:42:00,
2013-01-20 05:57:00,39.6,36.0,30.14,SSW,207,0.0,1.0,86,0.00,,,0.00,weatherlink.com 1.10,2013-01-20 11:57:00,
2013-01-20 06:12:00,39.2,35.0,30.14,SSW,207,0.0,2.0,86,0.00,,,0.00,weatherlink.com 1.10,2013-01-20 12:12:00,
2013-01-20 06:27:00,39.5,36.0,30.14,SSW,207,1.0,4.0,87,0.00,,,0.00,weatherlink.com 1.10,2013-01-20 12:27:00,
2013-01-20 06:42:00,39.9,36.0,30.15,SSW,207,0.0,3.0,86,0.00,,,0.00,weatherlink.com 1.10,2013-01-20 12:42:00,
2013-01-20 06:57:00,40.2,36.0,30.15,SSW,207,0.0,2.0,86,0.00,,,0.00,weatherlink.com 1.10,2013-01-20 12:57:00,
2013-01-20 07:12:00,40.3,37.0,30.16,SSW,207,2.0,2.0,86,0.00,,,0.00,weatherlink.com 1.10,2013-01-20 13:12:00,
2013-01-20 07:27:00,40.6,37.0,30.16,SSW,207,0.0,3.0,85,0.00,,,0.00,weatherlink.com 1.10,2013-01-20 13:27:00,
2013-01-20 07:42:00,41.5,37.0,30.16,SSW,207,0.0,3.0,84,0.00,,,0.00,weatherlink.com 1.10,2013-01-20 13:42:00,
2013-01-20 07:57:00,41.6,37.0,30.17,SSW,207,0.0,2.0,84,0.00,,,0.00,weatherlink.com 1.10,2013-01-20 13:57:00,
2013-01-20 08:12:00,42.5,38.0,30.17,SSW,207,0.0,5.0,84,0.00,,,0.00,weatherlink.com 1.10,2013-01-20 14:12:00,
2013-01-20 08:27:00,45.2,40.0,30.17,SSW,207,0.0,6.0,81,0.00,,,0.00,weatherlink.com 1.10,2013-01-20 14:27:00,
2013-01-20 08:42:00,47.8,41.0,30.18,SSW,207,2.0,3.0,77,0.00,,,0.00,weatherlink.com 1.10,2013-01-20 14:42:00,
2013-01-20 08:57:00,50.1,41.0,30.18,SSW,210,0.0,6.0,72,0.00,,,0.00,weatherlink.com 1.10,2013-01-20 14:57:00,
2013-01-20 09:12:00,52.2,42.0,30.19,SSW,210,0.0,4.0,68,0.00,,,0.00,weatherlink.com 1.10,2013-01-20 15:12:00,
2013-01-20 09:27:00,54.0,42.0,30.19,SSW,211,4.0,4.0,65,0.00,,,0.00,weatherlink.com 1.10,2013-01-20 15:27:00,
2013-01-20 09:42:00,55.4,42.0,30.19,WNW,282,2.0,6.0,61,0.00,,,0.00,weatherlink.com 1.10,2013-01-20 15:42:00,
2013-01-20 09:57:00,56.9,42.0,30.20,West,261,1.0,7.0,58,0.00,,,0.00,weatherlink.com 1.10,2013-01-20 15:57:00,
2013-01-20 10:12:00,58.9,43.0,30.20,West,264,1.0,7.0,55,0.00,,,0.00,weatherlink.com 1.10,2013-01-20 16:12:00,
2013-01-20 10:27:00,60.4,42.0,30.20,WSW,255,5.0,8.0,52,0.00,,,0.00,weatherlink.com 1.10,2013-01-20 16:27:00,
2013-01-20 10:42:00,61.2,43.0,30.20,WNW,296,0.0,11.0,51,0.00,,,0.00,weatherlink.com 1.10,2013-01-20 16:42:00,
2013-01-20 10:58:00,62.1,44.0,30.20,West,265,0.0,8.0,51,0.00,,,0.00,weatherlink.com 1.10,2013-01-20 16:58:00,
2013-01-20 11:28:00,63.9,43.0,30.18,WSW,237,4.0,9.0,47,0.00,,,0.00,weatherlink.com 1.10,2013-01-20 17:28:00,
2013-01-20 11:43:00,64.5,43.0,30.17,SW,225,3.0,7.0,46,0.00,,,0.00,weatherlink.com 1.10,2013-01-20 17:43:00,
2013-01-20 11:58:00,65.6,45.0,30.16,West,277,1.0,8.0,47,0.00,,,0.00,weatherlink.com 1.10,2013-01-20 17:58:00,
2013-01-20 12:13:00,66.6,44.0,30.14,WSW,244,2.0,9.0,44,0.00,,,0.00,weatherlink.com 1.10,2013-01-20 18:13:00,
2013-01-20 12:28:00,67.4,44.0,30.13,West,277,3.0,8.0,43,0.00,,,0.00,weatherlink.com 1.10,2013-01-20 18:28:00,
2013-01-20 12:43:00,68.0,43.0,30.12,WNW,288,0.0,7.0,41,0.00,,,0.00,weatherlink.com 1.10,2013-01-20 18:43:00,
2013-01-20 12:58:00,68.7,43.0,30.10,West,265,2.0,10.0,40,0.00,,,0.00,weatherlink.com 1.10,2013-01-20 18:58:00,
2013-01-20 13:13:00,69.3,43.0,30.09,WSW,245,4.0,6.0,39,0.00,,,0.00,weatherlink.com 1.10,2013-01-20 19:13:00,
2013-01-20 13:28:00,69.5,42.0,30.08,SW,228,0.0,7.0,37,0.00,,,0.00,weatherlink.com 1.10,2013-01-20 19:28:00,
2013-01-20 13:43:00,70.1,42.0,30.07,SW,232,0.0,5.0,36,0.00,,,0.00,weatherlink.com 1.10,2013-01-20 19:43:00,
2013-01-20 13:58:00,71.3,42.0,30.06,WSW,244,3.0,6.0,35,0.00,,,0.00,weatherlink.com 1.10,2013-01-20 19:58:00,
2013-01-20 14:14:00,72.0,43.0,30.06,NNE,21,4.0,6.0,35,0.00,,,0.00,weatherlink.com 1.10,2013-01-20 20:14:00,
2013-01-20 14:29:00,72.3,41.0,30.05,SW,233,3.0,7.0,32,0.00,,,0.00,weatherlink.com 1.10,2013-01-20 20:29:00,
2013-01-20 14:44:00,72.2,41.0,30.04,NNW,334,0.0,6.0,32,0.00,,,0.00,weatherlink.com 1.10,2013-01-20 20:44:00,
2013-01-20 14:59:00,72.6,40.0,30.03,NW,319,0.0,5.0,31,0.00,,,0.00,weatherlink.com 1.10,2013-01-20 20:59:00,
2013-01-20 15:14:00,73.4,39.0,30.03,WSW,255,2.0,4.0,29,0.00,,,0.00,weatherlink.com 1.10,2013-01-20 21:14:00,
2013-01-20 15:29:00,73.9,41.0,30.03,WNW,286,0.0,6.0,30,0.00,,,0.00,weatherlink.com 1.10,2013-01-20 21:29:00,
2013-01-20 15:44:00,73.5,38.0,30.02,SW,226,1.0,5.0,28,0.00,,,0.00,weatherlink.com 1.10,2013-01-20 21:44:00,
2013-01-20 15:59:00,73.5,39.0,30.02,WNW,300,0.0,6.0,29,0.00,,,0.00,weatherlink.com 1.10,2013-01-20 21:59:00,
2013-01-20 16:14:00,73.6,39.0,30.02,NNW,336,2.0,6.0,29,0.00,,,0.00,weatherlink.com 1.10,2013-01-20 22:14:00,
2013-01-20 16:29:00,73.9,40.0,30.02,NNW,342,0.0,5.0,29,0.00,,,0.00,weatherlink.com 1.10,2013-01-20 22:29:00,
2013-01-20 16:44:00,73.3,39.0,30.02,NNW,327,2.0,8.0,29,0.00,,,0.00,weatherlink.com 1.10,2013-01-20 22:44:00,
2013-01-20 16:59:00,72.7,38.0,30.02,WNW,286,0.0,7.0,28,0.00,,,0.00,weatherlink.com 1.10,2013-01-20 22:59:00,
2013-01-20 17:14:00,72.5,38.0,30.02,West,262,3.0,3.0,29,0.00,,,0.00,weatherlink.com 1.10,2013-01-20 23:14:00,
2013-01-20 17:29:00,71.7,38.0,30.02,West,262,0.0,3.0,29,0.00,,,0.00,weatherlink.com 1.10,2013-01-20 23:29:00,
2013-01-20 17:44:00,70.4,37.0,30.02,West,262,0.0,0.0,30,0.00,,,0.00,weatherlink.com 1.10,2013-01-20 23:44:00,
2013-01-20 17:59:00,68.2,36.0,30.01,West,262,0.0,0.0,31,0.00,,,0.00,weatherlink.com 1.10,2013-01-20 23:59:00,
2013-01-20 18:14:00,65.9,36.0,30.02,West,262,0.0,0.0,33,0.00,,,0.00,weatherlink.com 1.10,2013-01-21 00:14:00,
2013-01-20 18:29:00,63.8,35.0,30.02,West,262,0.0,0.0,34,0.00,,,0.00,weatherlink.com 1.10,2013-01-21 00:29:00,
2013-01-20 18:44:00,62.3,34.0,30.02,West,262,0.0,0.0,35,0.00,,,0.00,weatherlink.com 1.10,2013-01-21 00:44:00,
2013-01-20 18:59:00,59.0,37.0,30.03,SW,218,1.0,5.0,44,0.00,,,0.00,weatherlink.com 1.10,2013-01-21 00:59:00,
2013-01-20 19:14:00,59.4,40.0,30.03,SW,218,1.0,4.0,49,0.00,,,0.00,weatherlink.com 1.10,2013-01-21 01:14:00,
2013-01-20 19:29:00,59.8,41.0,30.04,SW,218,2.0,3.0,51,0.00,,,0.00,weatherlink.com 1.10,2013-01-21 01:29:00,
2013-01-20 19:44:00,59.6,43.0,30.04,SW,218,4.0,4.0,54,0.00,,,0.00,weatherlink.com 1.10,2013-01-21 01:44:00,
2013-01-20 19:59:00,58.7,43.0,30.04,SW,217,3.0,5.0,56,0.00,,,0.00,weatherlink.com 1.10,2013-01-21 01:59:00,
2013-01-20 20:14:00,57.9,43.0,30.04,SSW,205,2.0,5.0,59,0.00,,,0.00,weatherlink.com 1.10,2013-01-21 02:14:00,
2013-01-20 20:29:00,57.1,44.0,30.05,SSW,205,3.0,5.0,62,0.00,,,0.00,weatherlink.com 1.10,2013-01-21 02:29:00,
2013-01-20 20:44:00,56.5,44.0,30.05,SSW,205,1.0,5.0,63,0.00,,,0.00,weatherlink.com 1.10,2013-01-21 02:44:00,
2013-01-20 20:59:00,56.3,45.0,30.06,SSW,205,4.0,5.0,65,0.00,,,0.00,weatherlink.com 1.10,2013-01-21 02:59:00,
2013-01-20 21:14:00,56.5,45.0,30.06,SSW,205,4.0,5.0,66,0.00,,,0.00,weatherlink.com 1.10,2013-01-21 03:14:00,
2013-01-20 21:29:00,56.6,45.0,30.06,SSW,205,4.0,5.0,66,0.00,,,0.00,weatherlink.com 1.10,2013-01-21 03:29:00,
2013-01-20 21:44:00,56.0,45.0,30.06,SSW,205,3.0,6.0,67,0.00,,,0.00,weatherlink.com 1.10,2013-01-21 03:44:00,
2013-01-20 21:59:00,55.7,45.0,30.07,SSW,205,2.0,6.0,67,0.00,,,0.00,weatherlink.com 1.10,2013-01-21 03:59:00,
2013-01-20 22:14:00,55.4,45.0,30.07,SSW,205,0.0,4.0,68,0.00,,,0.00,weatherlink.com 1.10,2013-01-21 04:14:00,
2013-01-20 22:29:00,54.5,44.0,30.07,SSW,205,0.0,1.0,69,0.00,,,0.00,weatherlink.com 1.10,2013-01-21 04:29:00,
2013-01-20 22:44:00,53.4,44.0,30.07,SSW,205,0.0,0.0,71,0.00,,,0.00,weatherlink.com 1.10,2013-01-21 04:44:00,
2013-01-20 22:59:00,53.2,45.0,30.08,SSW,205,0.0,2.0,73,0.00,,,0.00,weatherlink.com 1.10,2013-01-21 04:59:00,
2013-01-20 23:14:00,52.5,43.0,30.08,SSW,205,0.0,3.0,71,0.00,,,0.00,weatherlink.com 1.10,2013-01-21 05:14:00,
2013-01-20 23:29:00,51.6,42.0,30.09,SSW,205,0.0,2.0,71,0.00,,,0.00,weatherlink.com 1.10,2013-01-21 05:29:00,
2013-01-20 23:44:00,50.6,42.0,30.08,SSW,205,0.0,1.0,73,0.00,,,0.00,weatherlink.com 1.10,2013-01-21 05:44:00,
2013-01-20 23:59:00,49.9,42.0,30.08,SSW,205,0.0,0.0,75,0.00,,,0.00,weatherlink.com 1.10,2013-01-21 05:59:00,